createdAt,value
2018-07-09T00:00:38.064Z,20.2
2018-07-09T00:01:37.895Z,20.2
2018-07-09T00:02:37.006Z,20.2
2018-07-09T00:03:36.843Z,20.1
2018-07-09T00:04:36.279Z,20.2
2018-07-09T00:05:35.607Z,20.1
2018-07-09T00:06:34.519Z,20.1
2018-07-09T00:07:34.354Z,20.1
2018-07-09T00:08:04.484Z,20.1
2018-07-09T00:08:35.010Z,20.1
2018-07-09T00:09:05.553Z,20.1
2018-07-09T00:09:36.194Z,20
2018-07-09T00:10:06.730Z,20
2018-07-09T00:11:32.232Z,20
2018-07-09T00:12:31.351Z,20
2018-07-09T00:13:30.806Z,20
2018-07-09T00:14:30.134Z,19.9
2018-07-09T00:15:29.866Z,19.9
2018-07-09T00:16:29.085Z,19.9
2018-07-09T00:17:28.197Z,19.9
2018-07-09T00:18:28.782Z,19.9
2018-07-09T00:19:27.127Z,19.8
2018-07-09T00:19:57.551Z,19.8
2018-07-09T00:20:27.875Z,19.8
2018-07-09T00:20:58.622Z,19.8
2018-07-09T00:22:25.774Z,19.8
2018-07-09T00:23:25.219Z,19.8
2018-07-09T00:24:24.435Z,19.8
2018-07-09T00:25:23.555Z,19.8
2018-07-09T00:27:22.668Z,19.7
2018-07-09T00:28:21.988Z,19.7
2018-07-09T00:29:21.315Z,19.7
2018-07-09T00:30:21.036Z,19.7
2018-07-09T00:31:20.470Z,19.7
2018-07-09T00:32:20.077Z,19.6
2018-07-09T00:33:18.848Z,19.6
2018-07-09T00:34:18.678Z,19.6
2018-07-09T00:35:18.023Z,19.6
2018-07-09T00:36:17.391Z,19.6
2018-07-09T00:37:16.502Z,19.6
2018-07-09T00:38:16.224Z,19.5
2018-07-09T00:39:15.432Z,19.5
2018-07-09T00:40:15.369Z,19.5
2018-07-09T00:41:14.588Z,19.5
2018-07-09T00:42:13.695Z,19.5
2018-07-09T00:43:13.524Z,19.5
2018-07-09T00:44:12.842Z,19.5
2018-07-09T00:45:12.280Z,19.5
2018-07-09T00:46:11.601Z,19.5
2018-07-09T00:47:10.832Z,19.5
2018-07-09T00:48:10.263Z,19.4
2018-07-09T00:49:09.375Z,19.4
2018-07-09T00:49:40.013Z,19.4
2018-07-09T00:50:10.652Z,19.4
2018-07-09T00:50:41.282Z,19.4
2018-07-09T00:51:11.716Z,19.4
2018-07-09T00:51:42.246Z,19.4
2018-07-09T00:52:12.994Z,19.3
2018-07-09T00:52:43.665Z,19.3
2018-07-09T00:53:13.481Z,19.3
2018-07-09T00:53:44.013Z,19.3
2018-07-09T00:55:05.880Z,19.3
2018-07-09T00:56:05.602Z,19.2
2018-07-09T00:57:05.039Z,19.2
2018-07-09T00:58:04.371Z,19.2
2018-07-09T00:59:03.595Z,19.2
2018-07-09T01:00:02.711Z,19.2
2018-07-09T01:01:02.326Z,19.1
2018-07-09T01:02:01.946Z,19.1
2018-07-09T01:02:32.687Z,19.1
2018-07-09T01:03:02.634Z,19.1
2018-07-09T01:03:32.947Z,19.1
2018-07-09T01:04:03.585Z,19.1
2018-07-09T01:05:00.503Z,19.1
2018-07-09T01:05:59.215Z,19.1
2018-07-09T01:06:59.050Z,19.1
2018-07-09T01:07:58.267Z,19.1
2018-07-09T01:08:57.489Z,19
2018-07-09T01:09:57.430Z,19
2018-07-09T01:10:56.748Z,19
2018-07-09T01:12:55.357Z,19
2018-07-09T01:13:54.790Z,19
2018-07-09T01:14:54.007Z,19
2018-07-09T01:15:53.224Z,19
2018-07-09T01:16:53.155Z,18.9
2018-07-09T01:17:52.583Z,18.9
2018-07-09T01:18:51.916Z,18.9
2018-07-09T01:19:51.246Z,18.9
2018-07-09T01:20:50.691Z,18.9
2018-07-09T01:21:50.016Z,18.9
2018-07-09T01:22:49.338Z,18.9
2018-07-09T01:23:48.351Z,18.9
2018-07-09T01:24:48.184Z,18.8
2018-07-09T01:25:47.615Z,18.8
2018-07-09T01:26:46.840Z,18.8
2018-07-09T01:27:46.064Z,18.8
2018-07-09T01:28:45.789Z,18.8
2018-07-09T01:29:45.007Z,18.8
2018-07-09T01:30:44.444Z,18.7
2018-07-09T01:31:43.881Z,18.7
2018-07-09T01:32:43.111Z,18.7
2018-07-09T01:33:42.539Z,18.7
2018-07-09T01:34:41.860Z,18.7
2018-07-09T01:35:41.076Z,18.7
2018-07-09T01:37:40.301Z,18.7
2018-07-09T01:38:39.643Z,18.7
2018-07-09T01:39:38.757Z,18.7
2018-07-09T01:40:38.103Z,18.6
2018-07-09T01:41:37.932Z,18.6
2018-07-09T01:42:37.161Z,18.6
2018-07-09T01:43:36.374Z,18.6
2018-07-09T01:44:36.102Z,18.6
2018-07-09T01:45:35.322Z,18.6
2018-07-09T01:46:34.750Z,18.6
2018-07-09T01:47:34.081Z,18.6
2018-07-09T01:48:33.305Z,18.6
2018-07-09T01:49:03.944Z,18.6
2018-07-09T01:49:34.476Z,18.5
2018-07-09T01:50:05.115Z,18.5
2018-07-09T01:50:35.537Z,18.5
2018-07-09T01:51:31.124Z,18.5
2018-07-09T01:52:30.980Z,18.4
2018-07-09T01:54:29.703Z,18.4
2018-07-09T01:55:28.810Z,18.4
2018-07-09T01:56:28.318Z,18.3
2018-07-09T01:57:27.754Z,18.3
2018-07-09T01:58:27.368Z,18.3
2018-07-09T01:58:57.911Z,18.3
2018-07-09T01:59:28.438Z,18.3
2018-07-09T01:59:59.174Z,18.3
2018-07-09T02:00:29.205Z,18.3
2018-07-09T02:00:59.626Z,18.3
2018-07-09T02:02:24.618Z,18.2
2018-07-09T02:03:24.055Z,18.2
2018-07-09T02:04:23.162Z,18.2
2018-07-09T02:05:23.096Z,18.2
2018-07-09T02:06:22.216Z,18.2
2018-07-09T02:07:21.648Z,18.2
2018-07-09T02:08:20.966Z,18.1
2018-07-09T02:09:20.288Z,18.1
2018-07-09T02:10:20.121Z,18.1
2018-07-09T02:11:18.943Z,18.1
2018-07-09T02:12:18.773Z,18
2018-07-09T02:13:18.105Z,18
2018-07-09T02:14:17.321Z,18
2018-07-09T02:15:16.752Z,18
2018-07-09T02:16:16.082Z,17.9
2018-07-09T02:17:15.300Z,17.9
2018-07-09T02:18:14.510Z,17.9
2018-07-09T02:19:14.341Z,17.9
2018-07-09T02:20:13.663Z,17.8
2018-07-09T02:21:12.774Z,17.8
2018-07-09T02:22:12.100Z,17.8
2018-07-09T02:23:11.925Z,17.8
2018-07-09T02:24:11.374Z,17.8
2018-07-09T02:25:10.314Z,17.8
2018-07-09T02:26:09.651Z,17.7
2018-07-09T02:27:09.079Z,17.7
2018-07-09T02:28:08.297Z,17.7
2018-07-09T02:29:07.405Z,17.7
2018-07-09T02:29:38.145Z,17.7
2018-07-09T02:30:08.398Z,17.7
2018-07-09T02:30:39.070Z,17.7
2018-07-09T02:31:09.493Z,17.7
2018-07-09T02:31:40.034Z,17.7
2018-07-09T02:32:10.693Z,17.7
2018-07-09T02:32:41.216Z,17.7
2018-07-09T02:34:04.697Z,17.6
2018-07-09T02:35:03.928Z,17.6
2018-07-09T02:36:03.801Z,17.6
2018-07-09T02:37:02.918Z,17.6
2018-07-09T02:38:02.374Z,17.6
2018-07-09T02:39:01.706Z,17.5
2018-07-09T02:41:00.473Z,17.5
2018-07-09T02:41:30.609Z,17.5
2018-07-09T02:42:01.248Z,17.4
2018-07-09T02:42:31.886Z,17.4
2018-07-09T02:43:02.351Z,17.4
2018-07-09T02:43:32.910Z,17.4
2018-07-09T02:44:57.803Z,17.5
2018-07-09T02:45:57.241Z,17.4
2018-07-09T02:46:56.692Z,17.4
2018-07-09T02:47:56.029Z,17.4
2018-07-09T02:48:55.410Z,17.4
2018-07-09T02:49:54.893Z,17.4
2018-07-09T02:50:53.643Z,17.4
2018-07-09T02:51:53.610Z,17.4
2018-07-09T02:52:52.443Z,17.4
2018-07-09T02:53:51.697Z,17.4
2018-07-09T02:54:51.331Z,17.4
2018-07-09T02:55:50.563Z,17.4
2018-07-09T02:56:50.014Z,17.3
2018-07-09T02:57:49.141Z,17.3
2018-07-09T02:58:48.986Z,17.3
2018-07-09T02:59:48.455Z,17.3
2018-07-09T03:00:48.502Z,17.3
2018-07-09T03:01:46.546Z,17.3
2018-07-09T03:02:46.276Z,17.3
2018-07-09T03:03:45.618Z,17.3
2018-07-09T03:04:44.880Z,17.3
2018-07-09T03:05:44.228Z,17.3
2018-07-09T03:06:43.251Z,17.2
2018-07-09T03:07:42.889Z,17.2
2018-07-09T03:08:42.225Z,17.2
2018-07-09T03:09:41.679Z,17.1
2018-07-09T03:10:40.916Z,17.2
2018-07-09T03:11:40.253Z,17.1
2018-07-09T03:12:39.702Z,17.1
2018-07-09T03:13:39.166Z,17.1
2018-07-09T03:14:38.499Z,17.1
2018-07-09T03:16:37.266Z,17.1
2018-07-09T03:17:36.605Z,17.1
2018-07-09T03:18:35.968Z,17
2018-07-09T03:19:35.322Z,17
2018-07-09T03:20:34.547Z,17
2018-07-09T03:21:33.897Z,17
2018-07-09T03:22:33.235Z,17
2018-07-09T03:24:32.068Z,16.9
2018-07-09T03:25:31.404Z,16.9
2018-07-09T03:26:30.860Z,16.9
2018-07-09T03:27:29.634Z,16.8
2018-07-09T03:28:29.252Z,16.8
2018-07-09T03:28:59.579Z,16.8
2018-07-09T03:29:30.288Z,16.8
2018-07-09T03:30:28.135Z,16.8
2018-07-09T03:31:27.371Z,16.8
2018-07-09T03:32:26.854Z,16.8
2018-07-09T03:33:25.975Z,16.8
2018-07-09T03:34:25.123Z,16.8
2018-07-09T03:35:24.244Z,16.7
2018-07-09T03:36:24.088Z,16.7
2018-07-09T03:37:23.414Z,16.7
2018-07-09T03:38:22.751Z,16.7
2018-07-09T03:38:53.398Z,16.7
2018-07-09T03:40:21.416Z,16.6
2018-07-09T03:41:20.745Z,16.7
2018-07-09T03:42:19.972Z,16.7
2018-07-09T03:43:19.090Z,16.6
2018-07-09T03:44:18.815Z,16.6
2018-07-09T03:45:18.255Z,16.6
2018-07-09T03:46:17.368Z,16.6
2018-07-09T03:47:16.802Z,16.6
2018-07-09T03:48:15.927Z,16.5
2018-07-09T03:49:15.650Z,16.5
2018-07-09T03:50:14.980Z,16.5
2018-07-09T03:51:14.421Z,16.5
2018-07-09T03:52:13.357Z,16.5
2018-07-09T03:53:12.693Z,16.5
2018-07-09T03:54:11.931Z,16.5
2018-07-09T03:55:11.268Z,16.4
2018-07-09T03:56:10.608Z,16.4
2018-07-09T03:57:09.833Z,16.4
2018-07-09T03:58:09.563Z,16.3
2018-07-09T03:59:08.794Z,16.4
2018-07-09T04:00:07.909Z,16.4
2018-07-09T04:01:07.129Z,16.4
2018-07-09T04:02:07.088Z,16.4
2018-07-09T04:03:05.817Z,16.3
2018-07-09T04:04:05.669Z,16.3
2018-07-09T04:05:04.897Z,16.2
2018-07-09T04:06:04.016Z,16.2
2018-07-09T04:07:02.929Z,16.2
2018-07-09T04:08:02.762Z,16.2
2018-07-09T04:08:33.204Z,16.2
2018-07-09T04:09:03.953Z,16.2
2018-07-09T04:09:34.201Z,16.2
2018-07-09T04:11:00.763Z,16.1
2018-07-09T04:12:00.001Z,16.1
2018-07-09T04:12:59.346Z,16.1
2018-07-09T04:13:58.675Z,16
2018-07-09T04:14:58.140Z,16
2018-07-09T04:15:57.467Z,16
2018-07-09T04:16:56.819Z,16
2018-07-09T04:17:56.144Z,16
2018-07-09T04:18:55.596Z,16
2018-07-09T04:19:25.552Z,16
2018-07-09T04:19:56.299Z,16
2018-07-09T04:20:26.445Z,16
2018-07-09T04:20:57.568Z,16
2018-07-09T04:21:27.663Z,16
2018-07-09T04:21:58.111Z,16
2018-07-09T04:22:28.550Z,16
2018-07-09T04:23:52.148Z,15.9
2018-07-09T04:24:51.368Z,15.9
2018-07-09T04:25:50.702Z,15.9
2018-07-09T04:26:49.947Z,15.9
2018-07-09T04:27:49.275Z,15.9
2018-07-09T04:28:48.711Z,15.9
2018-07-09T04:29:48.044Z,15.8
2018-07-09T04:30:47.486Z,15.8
2018-07-09T04:31:47.052Z,15.8
2018-07-09T04:32:45.999Z,15.8
2018-07-09T04:34:44.828Z,15.8
2018-07-09T04:35:43.543Z,15.8
2018-07-09T04:36:43.432Z,15.8
2018-07-09T04:37:42.408Z,15.8
2018-07-09T04:38:41.744Z,15.8
2018-07-09T04:39:40.855Z,15.8
2018-07-09T04:40:40.693Z,15.8
2018-07-09T04:41:40.022Z,15.8
2018-07-09T04:42:38.966Z,15.9
2018-07-09T04:43:38.308Z,15.9
2018-07-09T04:45:37.030Z,15.9
2018-07-09T04:46:36.258Z,15.9
2018-07-09T04:47:35.702Z,15.9
2018-07-09T04:48:34.931Z,15.9
2018-07-09T04:49:33.941Z,15.9
2018-07-09T04:50:33.676Z,15.9
2018-07-09T04:51:33.007Z,15.9
2018-07-09T04:52:32.338Z,15.9
2018-07-09T04:53:32.082Z,16
2018-07-09T04:54:31.074Z,15.9
2018-07-09T04:56:29.187Z,15.9
2018-07-09T04:57:28.815Z,15.9
2018-07-09T04:58:28.056Z,15.9
2018-07-09T04:59:27.060Z,15.9
2018-07-09T05:00:26.793Z,15.9
2018-07-09T05:01:26.231Z,15.9
2018-07-09T05:01:56.653Z,15.9
2018-07-09T05:02:27.317Z,15.9
2018-07-09T05:02:57.856Z,15.9
2018-07-09T05:04:24.234Z,15.9
2018-07-09T05:05:23.583Z,15.9
2018-07-09T05:07:22.200Z,15.9
2018-07-09T05:08:21.635Z,15.9
2018-07-09T05:09:20.564Z,15.8
2018-07-09T05:10:19.584Z,15.8
2018-07-09T05:11:19.528Z,15.8
2018-07-09T05:12:18.458Z,15.7
2018-07-09T05:12:48.705Z,15.7
2018-07-09T05:13:18.955Z,15.7
2018-07-09T05:14:17.168Z,15.7
2018-07-09T05:15:16.613Z,15.8
2018-07-09T05:18:14.340Z,15.8
2018-07-09T05:19:13.679Z,15.9
2018-07-09T05:20:12.899Z,15.8
2018-07-09T05:21:12.262Z,15.8
2018-07-09T05:22:11.711Z,15.8
2018-07-09T05:23:10.834Z,15.8
2018-07-09T05:24:10.279Z,15.8
2018-07-09T05:25:09.655Z,15.9
2018-07-09T05:26:09.108Z,15.8
2018-07-09T05:27:08.444Z,15.8
2018-07-09T05:29:06.676Z,15.8
2018-07-09T05:30:06.300Z,15.9
2018-07-09T05:31:05.624Z,15.9
2018-07-09T05:32:04.967Z,15.9
2018-07-09T05:33:04.405Z,15.9
2018-07-09T05:34:03.020Z,15.9
2018-07-09T05:35:02.752Z,15.8
2018-07-09T05:36:01.982Z,15.8
2018-07-09T05:37:01.100Z,15.8
2018-07-09T05:38:01.042Z,15.8
2018-07-09T05:38:59.766Z,15.7
2018-07-09T05:39:59.283Z,15.7
2018-07-09T05:40:58.685Z,15.7
2018-07-09T05:41:58.025Z,15.8
2018-07-09T05:42:57.161Z,15.8
2018-07-09T05:43:56.393Z,15.8
2018-07-09T05:44:55.737Z,15.9
2018-07-09T05:45:54.962Z,15.9
2018-07-09T05:46:54.520Z,15.9
2018-07-09T05:47:53.876Z,16
2018-07-09T05:48:53.206Z,16
2018-07-09T05:49:52.640Z,16
2018-07-09T05:50:51.986Z,16
2018-07-09T05:51:51.431Z,16
2018-07-09T05:52:49.945Z,16
2018-07-09T05:53:49.780Z,16
2018-07-09T05:54:49.006Z,16.1
2018-07-09T05:55:48.442Z,16.1
2018-07-09T05:56:47.828Z,16
2018-07-09T05:57:46.834Z,15.9
2018-07-09T05:58:17.374Z,15.9
2018-07-09T05:58:48.025Z,15.9
2018-07-09T05:59:17.953Z,15.9
2018-07-09T05:59:48.603Z,15.8
2018-07-09T06:00:19.145Z,15.8
2018-07-09T06:01:44.138Z,15.8
2018-07-09T06:02:43.479Z,15.8
2018-07-09T06:04:42.310Z,15.9
2018-07-09T06:05:41.553Z,15.9
2018-07-09T06:06:40.998Z,16
2018-07-09T06:07:40.226Z,16
2018-07-09T06:08:39.549Z,16
2018-07-09T06:09:38.773Z,16.1
2018-07-09T06:10:38.005Z,16.1
2018-07-09T06:11:37.544Z,16.2
2018-07-09T06:12:36.986Z,16.2
2018-07-09T06:13:36.704Z,16.3
2018-07-09T06:14:35.059Z,16.3
2018-07-09T06:15:34.415Z,16.2
2018-07-09T06:16:33.850Z,16.3
2018-07-09T06:17:33.191Z,16.3
2018-07-09T06:18:32.426Z,16.3
2018-07-09T06:19:32.055Z,16.3
2018-07-09T06:20:31.486Z,16.3
2018-07-09T06:21:30.425Z,16.4
2018-07-09T06:22:29.758Z,16.4
2018-07-09T06:23:29.001Z,16.5
2018-07-09T06:24:28.125Z,16.5
2018-07-09T06:25:28.071Z,16.5
2018-07-09T06:26:27.031Z,16.7
2018-07-09T06:27:26.357Z,16.7
2018-07-09T06:28:25.694Z,16.7
2018-07-09T06:28:56.345Z,16.7
2018-07-09T06:29:26.881Z,16.8
2018-07-09T06:30:24.202Z,16.8
2018-07-09T06:31:23.489Z,16.8
2018-07-09T06:32:22.729Z,16.8
2018-07-09T06:33:22.349Z,16.8
2018-07-09T06:34:21.587Z,16.9
2018-07-09T06:35:20.810Z,16.9
2018-07-09T06:36:20.028Z,16.9
2018-07-09T06:37:19.363Z,17
2018-07-09T06:38:18.585Z,17
2018-07-09T06:39:18.527Z,17
2018-07-09T06:39:48.784Z,17
2018-07-09T06:40:19.327Z,17
2018-07-09T06:40:50.079Z,17
2018-07-09T06:41:20.012Z,17.1
2018-07-09T06:41:50.773Z,17.1
2018-07-09T06:43:15.284Z,17.2
2018-07-09T06:44:14.515Z,17.2
2018-07-09T06:45:14.460Z,17.3
2018-07-09T06:46:13.449Z,17.3
2018-07-09T06:47:12.905Z,17.2
2018-07-09T06:48:12.420Z,17.1
2018-07-09T06:49:11.376Z,17.1
2018-07-09T06:49:41.411Z,17.1
2018-07-09T06:50:12.371Z,17.1
2018-07-09T06:50:42.628Z,17.1
2018-07-09T06:51:12.577Z,17.2
2018-07-09T06:51:43.116Z,17.2
2018-07-09T06:53:09.125Z,17.3
2018-07-09T06:54:07.853Z,17.3
2018-07-09T06:55:07.011Z,17.4
2018-07-09T06:56:06.749Z,17.5
2018-07-09T06:57:06.090Z,17.5
2018-07-09T06:58:05.536Z,17.5
2018-07-09T06:59:04.770Z,17.5
2018-07-09T07:00:04.006Z,17.5
2018-07-09T07:01:03.015Z,17.4
2018-07-09T07:03:02.036Z,17.4
2018-07-09T07:04:01.052Z,17.4
2018-07-09T07:05:01.019Z,17.4
2018-07-09T07:06:00.152Z,17.4
2018-07-09T07:06:59.541Z,17.4
2018-07-09T07:07:58.761Z,17.5
2018-07-09T07:08:59.397Z,17.5
2018-07-09T07:09:57.267Z,17.6
2018-07-09T07:10:56.502Z,17.6
2018-07-09T07:11:56.225Z,17.7
2018-07-09T07:12:55.470Z,17.7
2018-07-09T07:13:54.813Z,17.7
2018-07-09T07:14:54.139Z,17.7
2018-07-09T07:15:53.352Z,17.7
2018-07-09T07:16:52.478Z,17.7
2018-07-09T07:17:23.021Z,17.7
2018-07-09T07:17:53.553Z,17.7
2018-07-09T07:18:51.380Z,17.7
2018-07-09T07:19:50.711Z,17.7
2018-07-09T07:20:49.937Z,17.7
2018-07-09T07:21:49.283Z,17.7
2018-07-09T07:22:48.722Z,17.7
2018-07-09T07:23:48.162Z,17.7
2018-07-09T07:24:47.386Z,17.7
2018-07-09T07:25:46.606Z,17.7
2018-07-09T07:26:46.228Z,17.7
2018-07-09T07:27:45.562Z,17.7
2018-07-09T07:28:44.680Z,17.8
2018-07-09T07:29:44.415Z,17.9
2018-07-09T07:30:43.634Z,17.8
2018-07-09T07:31:42.866Z,17.8
2018-07-09T07:32:42.587Z,17.8
2018-07-09T07:33:41.323Z,17.9
2018-07-09T07:34:41.156Z,18
2018-07-09T07:35:40.489Z,18.1
2018-07-09T07:36:39.949Z,18.1
2018-07-09T07:37:10.239Z,18.1
2018-07-09T07:37:40.771Z,18.1
2018-07-09T07:38:11.199Z,18.1
2018-07-09T07:39:37.715Z,18.2
2018-07-09T07:40:36.834Z,18.1
2018-07-09T07:41:36.563Z,18.1
2018-07-09T07:42:36.007Z,18.1
2018-07-09T07:43:35.365Z,18.1
2018-07-09T07:44:34.589Z,18.2
2018-07-09T07:45:33.815Z,18.2
2018-07-09T07:46:33.152Z,18.3
2018-07-09T07:47:32.606Z,18.4
2018-07-09T07:48:31.726Z,18.3
2018-07-09T07:49:30.951Z,18.3
2018-07-09T07:50:32.263Z,18.3
2018-07-09T07:51:29.500Z,18.3
2018-07-09T07:52:29.353Z,18.4
2018-07-09T07:53:28.581Z,18.4
2018-07-09T07:54:27.927Z,18.4
2018-07-09T07:55:27.156Z,18.5
2018-07-09T07:56:26.999Z,18.6
2018-07-09T07:57:26.440Z,18.9
2018-07-09T07:58:25.059Z,19
2018-07-09T07:59:24.809Z,19
2018-07-09T08:01:23.438Z,18.8
2018-07-09T08:02:22.699Z,18.8
2018-07-09T08:03:22.034Z,18.8
2018-07-09T08:04:21.663Z,18.8
2018-07-09T08:05:21.012Z,18.7
2018-07-09T08:06:20.244Z,18.7
2018-07-09T08:07:19.622Z,18.7
2018-07-09T08:08:18.952Z,18.6
2018-07-09T08:09:19.186Z,18.7
2018-07-09T08:10:17.590Z,18.6
2018-07-09T08:11:16.922Z,18.7
2018-07-09T08:13:29.660Z,18.8
2018-07-09T08:13:31.939Z,18.8
2018-07-09T08:14:15.180Z,18.8
2018-07-09T08:15:14.310Z,18.8
2018-07-09T08:16:14.265Z,18.8
2018-07-09T08:17:13.716Z,18.8
2018-07-09T08:17:43.754Z,18.8
2018-07-09T08:18:14.289Z,18.7
2018-07-09T08:18:45.152Z,18.7
2018-07-09T08:19:15.406Z,18.7
2018-07-09T08:19:45.444Z,18.7
2018-07-09T08:21:10.648Z,18.7
2018-07-09T08:22:10.656Z,18.7
2018-07-09T08:23:09.388Z,18.8
2018-07-09T08:24:09.387Z,18.8
2018-07-09T08:25:09.680Z,18.8
2018-07-09T08:26:07.553Z,18.7
2018-07-09T08:27:06.803Z,18.6
2018-07-09T08:28:06.543Z,18.5
2018-07-09T08:28:36.872Z,18.5
2018-07-09T08:29:07.441Z,18.6
2018-07-09T08:29:38.232Z,18.6
2018-07-09T08:31:04.861Z,18.7
2018-07-09T08:32:04.071Z,18.7
2018-07-09T08:33:03.316Z,18.6
2018-07-09T08:34:02.333Z,18.6
2018-07-09T08:35:01.957Z,18.5
2018-07-09T08:36:01.380Z,18.5
2018-07-09T08:37:00.710Z,18.5
2018-07-09T08:38:00.801Z,18.5
2018-07-09T08:38:59.749Z,18.5
2018-07-09T08:39:59.092Z,18.5
2018-07-09T08:40:58.417Z,18.5
2018-07-09T08:41:57.424Z,18.5
2018-07-09T08:42:57.146Z,18.5
2018-07-09T08:43:56.369Z,18.5
2018-07-09T08:44:55.711Z,18.5
2018-07-09T08:45:55.434Z,18.5
2018-07-09T08:46:54.650Z,18.5
2018-07-09T08:47:54.086Z,18.5
2018-07-09T08:48:53.416Z,18.5
2018-07-09T08:49:52.652Z,18.5
2018-07-09T08:50:52.090Z,18.6
2018-07-09T08:51:51.318Z,18.7
2018-07-09T08:52:50.757Z,18.7
2018-07-09T08:53:50.103Z,18.6
2018-07-09T08:54:49.440Z,18.6
2018-07-09T08:55:48.776Z,18.6
2018-07-09T08:56:48.016Z,18.7
2018-07-09T08:57:47.962Z,18.8
2018-07-09T08:58:47.425Z,18.8
2018-07-09T08:59:46.646Z,18.9
2018-07-09T09:00:45.978Z,18.8
2018-07-09T09:01:16.723Z,18.8
2018-07-09T09:02:44.526Z,18.8
2018-07-09T09:03:44.259Z,18.8
2018-07-09T09:04:43.053Z,18.7
2018-07-09T09:05:42.785Z,18.6
2018-07-09T09:06:42.009Z,18.6
2018-07-09T09:07:41.343Z,18.6
2018-07-09T09:08:40.674Z,18.6
2018-07-09T09:09:40.008Z,18.6
2018-07-09T09:10:39.340Z,18.6
2018-07-09T09:11:38.962Z,18.6
2018-07-09T09:12:09.607Z,18.6
2018-07-09T09:12:39.744Z,18.7
2018-07-09T09:13:37.350Z,18.8
2018-07-09T09:14:37.293Z,18.8
2018-07-09T09:15:36.632Z,18.9
2018-07-09T09:16:36.554Z,18.8
2018-07-09T09:17:34.972Z,18.9
2018-07-09T09:18:34.707Z,18.9
2018-07-09T09:19:33.936Z,18.9
2018-07-09T09:20:33.276Z,19
2018-07-09T09:21:32.605Z,19.1
2018-07-09T09:22:31.727Z,19.2
2018-07-09T09:23:31.344Z,19.3
2018-07-09T09:24:30.674Z,19.4
2018-07-09T09:25:30.823Z,19.3
2018-07-09T09:26:29.831Z,19.5
2018-07-09T09:27:28.954Z,19.6
2018-07-09T09:28:28.388Z,19.6
2018-07-09T09:29:27.633Z,19.6
2018-07-09T09:30:26.856Z,19.5
2018-07-09T09:31:27.161Z,19.6
2018-07-09T09:32:26.113Z,19.5
2018-07-09T09:33:25.456Z,19.5
2018-07-09T09:34:24.689Z,19.6
2018-07-09T09:35:24.019Z,19.6
2018-07-09T09:36:23.247Z,19.6
2018-07-09T09:37:22.788Z,19.6
2018-07-09T09:38:22.237Z,19.7
2018-07-09T09:39:21.363Z,19.6
2018-07-09T09:40:21.098Z,19.6
2018-07-09T09:41:20.325Z,19.8
2018-07-09T09:42:19.555Z,19.9
2018-07-09T09:43:19.004Z,19.9
2018-07-09T09:44:18.344Z,20
2018-07-09T09:45:17.365Z,20.2
2018-07-09T09:46:17.229Z,20.1
2018-07-09T09:47:16.563Z,20.2
2018-07-09T09:48:15.790Z,20.2
2018-07-09T09:49:15.804Z,20.2
2018-07-09T09:50:14.633Z,20.4
2018-07-09T09:51:14.470Z,20.4
2018-07-09T09:52:13.801Z,20.5
2018-07-09T09:53:12.919Z,20.5
2018-07-09T09:54:12.556Z,20.6
2018-07-09T09:55:11.901Z,20.6
2018-07-09T09:56:11.246Z,20.7
2018-07-09T09:57:10.591Z,20.8
2018-07-09T09:57:41.127Z,20.8
2018-07-09T09:59:09.450Z,21.1
2018-07-09T10:00:08.567Z,20.8
2018-07-09T10:01:08.306Z,20.8
2018-07-09T10:02:07.534Z,20.8
2018-07-09T10:03:06.758Z,20.7
2018-07-09T10:05:05.873Z,20.4
2018-07-09T10:06:05.311Z,20.4
2018-07-09T10:07:04.538Z,20.4
2018-07-09T10:07:34.969Z,20.4
2018-07-09T10:08:05.513Z,20.5
2018-07-09T10:08:36.677Z,20.5
2018-07-09T10:09:06.378Z,20.5
2018-07-09T10:09:36.915Z,20.5
2018-07-09T10:11:02.212Z,20.5
2018-07-09T10:13:01.328Z,20.4
2018-07-09T10:14:00.671Z,20.5
2018-07-09T10:14:59.790Z,20.5
2018-07-09T10:15:59.517Z,20.6
2018-07-09T10:16:59.480Z,20.6
2018-07-09T10:17:58.449Z,20.7
2018-07-09T10:18:57.666Z,20.6
2018-07-09T10:19:57.014Z,20.6
2018-07-09T10:20:56.449Z,20.6
2018-07-09T10:21:55.729Z,20.7
2018-07-09T10:22:56.247Z,20.6
2018-07-09T10:23:54.500Z,20.5
2018-07-09T10:24:54.337Z,20.6
2018-07-09T10:25:53.676Z,20.7
2018-07-09T10:26:53.023Z,20.8
2018-07-09T10:27:52.468Z,20.9
2018-07-09T10:28:51.585Z,20.9
2018-07-09T10:29:51.528Z,20.9
2018-07-09T10:30:51.030Z,20.9
2018-07-09T10:31:50.494Z,21
2018-07-09T10:32:49.419Z,21.1
2018-07-09T10:33:48.644Z,21.2
2018-07-09T10:34:48.477Z,21.2
2018-07-09T10:35:47.716Z,21.3
2018-07-09T10:36:47.243Z,21.2
2018-07-09T10:37:46.574Z,21.2
2018-07-09T10:38:46.019Z,21.4
2018-07-09T10:39:45.255Z,21.4
2018-07-09T10:40:15.905Z,21.4
2018-07-09T10:41:44.316Z,21.5
2018-07-09T10:42:43.653Z,21.5
2018-07-09T10:43:43.382Z,21.5
2018-07-09T10:44:42.821Z,21.6
2018-07-09T10:45:42.158Z,21.5
2018-07-09T10:46:41.599Z,21.6
2018-07-09T10:47:41.085Z,21.6
2018-07-09T10:48:40.205Z,21.4
2018-07-09T10:49:39.937Z,21.3
2018-07-09T10:50:39.267Z,21.2
2018-07-09T10:51:09.694Z,21.2
2018-07-09T10:51:40.335Z,21.2
2018-07-09T10:52:10.974Z,21.2
2018-07-09T10:53:37.370Z,21.2
2018-07-09T10:54:37.099Z,21.2
2018-07-09T10:55:36.444Z,21.1
2018-07-09T10:56:35.718Z,21.1
2018-07-09T10:57:35.343Z,21.2
2018-07-09T10:58:34.665Z,21.2
2018-07-09T10:59:34.101Z,21
2018-07-09T11:00:33.540Z,20.9
2018-07-09T11:01:32.757Z,20.9
2018-07-09T11:02:03.299Z,20.9
2018-07-09T11:03:31.715Z,20.8
2018-07-09T11:04:31.669Z,20.8
2018-07-09T11:05:31.010Z,20.7
2018-07-09T11:06:30.345Z,20.7
2018-07-09T11:07:29.679Z,20.7
2018-07-09T11:08:29.007Z,20.6
2018-07-09T11:09:28.742Z,20.6
2018-07-09T11:10:28.080Z,20.6
2018-07-09T11:11:27.298Z,20.5
2018-07-09T11:12:27.028Z,20.5
2018-07-09T11:13:26.358Z,20.5
2018-07-09T11:14:25.604Z,20.5
2018-07-09T11:15:25.443Z,20.5
2018-07-09T11:16:25.168Z,20.5
2018-07-09T11:17:23.890Z,20.4
2018-07-09T11:18:23.727Z,20.4
2018-07-09T11:19:22.955Z,20.4
2018-07-09T11:20:22.293Z,20.5
2018-07-09T11:22:21.310Z,20.5
2018-07-09T11:23:20.631Z,20.6
2018-07-09T11:24:19.964Z,20.9
2018-07-09T11:25:19.294Z,21
2018-07-09T11:26:18.918Z,21.2
2018-07-09T11:27:18.244Z,21.3
2018-07-09T11:28:17.684Z,21.5
2018-07-09T11:29:17.267Z,21.7
2018-07-09T11:30:16.507Z,21.8
2018-07-09T11:31:16.237Z,22
2018-07-09T11:32:15.466Z,22.1
2018-07-09T11:33:14.694Z,22.1
2018-07-09T11:34:14.417Z,22.2
2018-07-09T11:35:13.851Z,22.3
2018-07-09T11:36:13.298Z,22.5
2018-07-09T11:37:12.731Z,22.7
2018-07-09T11:38:12.063Z,22.5
2018-07-09T11:39:11.900Z,22.6
2018-07-09T11:41:10.740Z,22.5
2018-07-09T11:42:10.513Z,22.6
2018-07-09T11:43:09.470Z,22.5
2018-07-09T11:44:09.312Z,22.6
2018-07-09T11:45:08.641Z,22.7
2018-07-09T11:46:07.868Z,22.9
2018-07-09T11:47:07.306Z,22.6
2018-07-09T11:48:06.537Z,22.8
2018-07-09T11:48:37.073Z,22.8
2018-07-09T11:49:07.407Z,22.7
2018-07-09T11:49:38.049Z,22.7
2018-07-09T11:50:08.697Z,22.7
2018-07-09T11:50:39.582Z,22.7
2018-07-09T11:51:09.838Z,22.9
2018-07-09T11:51:39.981Z,22.9
2018-07-09T11:55:03.055Z,23.2
2018-07-09T11:56:02.903Z,23
2018-07-09T11:57:02.033Z,23.3
2018-07-09T11:58:01.655Z,23.4
2018-07-09T11:59:01.704Z,23.4
2018-07-09T12:00:00.404Z,23.2
2018-07-09T12:01:00.269Z,23.4
2018-07-09T12:02:00.272Z,23.5
2018-07-09T12:02:59.186Z,23.4
2018-07-09T12:03:58.520Z,23.5
2018-07-09T12:05:57.644Z,23.8
2018-07-09T12:06:56.866Z,23.9
2018-07-09T12:07:56.596Z,23.9
2018-07-09T12:08:56.038Z,24.1
2018-07-09T12:09:55.268Z,24.2
2018-07-09T12:10:55.006Z,24.1
2018-07-09T12:11:54.525Z,24.1
2018-07-09T12:12:53.848Z,24
2018-07-09T12:13:53.574Z,24
2018-07-09T12:14:52.903Z,24.1
2018-07-09T12:15:52.860Z,24.1
2018-07-09T12:16:51.967Z,24.2
2018-07-09T12:17:51.919Z,24.2
2018-07-09T12:18:51.150Z,24.1
2018-07-09T12:19:50.767Z,24.2
2018-07-09T12:20:49.996Z,24
2018-07-09T12:21:49.951Z,24.1
2018-07-09T12:22:49.185Z,24
2018-07-09T12:23:48.410Z,24.3
2018-07-09T12:24:48.350Z,24.3
2018-07-09T12:25:47.788Z,24.5
2018-07-09T12:26:47.020Z,24.6
2018-07-09T12:27:46.968Z,24.4
2018-07-09T12:28:46.295Z,24.4
2018-07-09T12:29:46.140Z,24.4
2018-07-09T12:30:45.278Z,24.5
2018-07-09T12:31:45.115Z,24.5
2018-07-09T12:32:15.769Z,24.5
2018-07-09T12:32:46.200Z,24.6
2018-07-09T12:33:16.732Z,24.6
2018-07-09T12:33:47.267Z,24.9
2018-07-09T12:34:17.808Z,24.9
2018-07-09T12:35:43.215Z,25.2
2018-07-09T12:36:42.553Z,25.2
2018-07-09T12:37:42.296Z,24.8
2018-07-09T12:38:41.638Z,25.1
2018-07-09T12:39:41.358Z,24.8
2018-07-09T12:40:40.599Z,24.8
2018-07-09T12:41:40.321Z,25.1
2018-07-09T12:42:39.541Z,24.9
2018-07-09T12:43:10.304Z,24.9
2018-07-09T12:43:40.547Z,24.5
2018-07-09T12:44:10.789Z,24.5
2018-07-09T12:44:40.833Z,24.3
2018-07-09T12:45:11.381Z,24.3
2018-07-09T12:45:41.932Z,24.5
2018-07-09T12:46:38.252Z,24.5
2018-07-09T12:47:37.597Z,24.6
2018-07-09T12:48:36.931Z,24.5
2018-07-09T12:49:36.998Z,24.8